createdAt,value
2018-09-14T00:01:48.601Z,43.40
2018-09-14T00:04:17.038Z,44.97
2018-09-14T00:06:45.457Z,44.53
2018-09-14T00:09:13.934Z,43.30
2018-09-14T00:11:42.897Z,46.10
2018-09-14T00:14:11.426Z,43.63
2018-09-14T00:16:39.842Z,47.73
2018-09-14T00:19:08.290Z,45.87
2018-09-14T00:21:37.015Z,48.20
2018-09-14T00:24:05.514Z,43.37
2018-09-14T00:26:33.951Z,44.80
2018-09-14T00:29:02.410Z,41.23
2018-09-14T00:31:30.829Z,39.10
2018-09-14T00:33:59.259Z,38.47
2018-09-14T00:36:27.706Z,39.43
2018-09-14T00:38:56.156Z,36.20
2018-09-14T00:41:24.596Z,37.43
2018-09-14T00:43:53.041Z,38.30
2018-09-14T00:46:21.478Z,38.70
2018-09-14T00:48:49.914Z,38.17
2018-09-14T00:51:18.335Z,42.43
2018-09-14T00:53:46.770Z,40.17
2018-09-14T00:56:15.203Z,42.47
2018-09-14T00:58:43.659Z,42.60
2018-09-14T01:01:12.094Z,41.93
2018-09-14T01:03:40.526Z,41.97
2018-09-14T01:06:08.957Z,39.43
2018-09-14T01:08:37.423Z,34.77
2018-09-14T01:11:05.906Z,40.63
2018-09-14T01:13:34.358Z,41.40
2018-09-14T01:16:02.775Z,34.40
2018-09-14T01:18:31.233Z,39.53
2018-09-14T01:20:59.681Z,40.73
2018-09-14T01:23:28.130Z,38.93
2018-09-14T01:25:56.558Z,34.20
2018-09-14T01:28:25.038Z,33.10
2018-09-14T01:30:53.477Z,33.23
2018-09-14T01:33:21.949Z,34.67
2018-09-14T01:35:55.546Z,36.97
2018-09-14T01:38:24.004Z,35.43
2018-09-14T01:40:52.446Z,35.57
2018-09-14T01:43:20.955Z,34.10
2018-09-14T01:45:49.345Z,33.30
2018-09-14T01:48:17.806Z,35.53
2018-09-14T01:50:46.266Z,31.97
2018-09-14T01:53:14.854Z,37.07
2018-09-14T01:55:43.302Z,41.97
2018-09-14T01:58:11.757Z,34.97
2018-09-14T02:00:40.197Z,35.23
2018-09-14T02:03:08.649Z,32.87
2018-09-14T02:05:37.093Z,31.93
2018-09-14T02:08:05.589Z,35.97
2018-09-14T02:10:34.017Z,34.40
2018-09-14T02:13:02.486Z,30.37
2018-09-14T02:15:30.917Z,32.37
2018-09-14T02:17:59.353Z,33.27
2018-09-14T02:20:27.810Z,32.80
2018-09-14T02:22:56.248Z,29.03
2018-09-14T02:25:24.762Z,34.20
2018-09-14T02:27:53.166Z,36.37
2018-09-14T02:30:21.631Z,39.40
2018-09-14T02:32:50.068Z,31.90
2018-09-14T02:35:18.529Z,32.67
2018-09-14T02:37:46.961Z,31.83
2018-09-14T02:40:15.420Z,33.90
2018-09-14T02:42:43.887Z,29.63
2018-09-14T02:45:12.379Z,30.00
2018-09-14T02:47:40.825Z,30.50
2018-09-14T02:50:09.309Z,27.20
2018-09-14T02:52:37.749Z,29.80
2018-09-14T02:55:06.317Z,30.43
2018-09-14T02:57:34.765Z,28.57
2018-09-14T03:00:03.306Z,26.90
2018-09-14T03:02:31.699Z,24.93
2018-09-14T03:05:00.169Z,28.97
2018-09-14T03:07:28.593Z,30.77
2018-09-14T03:09:57.037Z,26.97
2018-09-14T03:12:25.489Z,26.80
2018-09-14T03:14:54.154Z,24.97
2018-09-14T03:17:22.582Z,29.70
2018-09-14T03:19:51.061Z,26.63
2018-09-14T03:22:20.355Z,25.87
2018-09-14T03:24:48.810Z,32.90
2018-09-14T03:27:17.254Z,24.83
2018-09-14T03:29:45.705Z,26.97
2018-09-14T03:32:14.221Z,25.67
2018-09-14T03:34:42.606Z,22.47
2018-09-14T03:37:11.191Z,24.13
2018-09-14T03:39:39.643Z,23.37
2018-09-14T03:42:08.117Z,23.20
2018-09-14T03:44:36.739Z,24.47
2018-09-14T03:47:05.249Z,23.27
2018-09-14T03:49:33.697Z,22.87
2018-09-14T03:52:02.143Z,20.57
2018-09-14T03:54:30.801Z,20.73
2018-09-14T03:57:02.923Z,20.73
2018-09-14T03:59:32.374Z,21.13
2018-09-14T04:02:00.834Z,19.70
2018-09-14T04:04:29.278Z,22.93
2018-09-14T04:06:57.759Z,20.97
2018-09-14T04:09:26.230Z,18.43
2018-09-14T04:11:54.674Z,19.17
2018-09-14T04:14:23.136Z,20.03
2018-09-14T04:16:51.562Z,22.50
2018-09-14T04:19:19.998Z,19.03
2018-09-14T04:21:48.426Z,19.43
2018-09-14T04:24:16.882Z,15.63
2018-09-14T04:26:45.305Z,19.30
2018-09-14T04:29:13.742Z,18.57
2018-09-14T04:31:42.160Z,14.30
2018-09-14T04:34:10.610Z,16.23
2018-09-14T04:36:39.046Z,16.77
2018-09-14T04:39:09.760Z,17.00
2018-09-14T04:41:38.197Z,15.87
2018-09-14T04:44:06.661Z,18.60
2018-09-14T04:46:35.110Z,14.80
2018-09-14T04:49:03.538Z,16.33
2018-09-14T04:51:32.070Z,18.40
2018-09-14T04:54:00.433Z,20.97
2018-09-14T04:56:28.886Z,16.30
2018-09-14T04:58:57.391Z,17.73
2018-09-14T05:01:25.823Z,18.50
2018-09-14T05:03:54.253Z,18.37
2018-09-14T05:06:22.706Z,20.20
2018-09-14T05:08:51.133Z,17.77
2018-09-14T05:11:19.625Z,18.43
2018-09-14T05:13:48.058Z,17.90
2018-09-14T05:16:16.581Z,16.00
2018-09-14T05:18:45.049Z,17.23
2018-09-14T05:21:13.590Z,15.33
2018-09-14T05:23:42.013Z,15.47
2018-09-14T05:26:10.474Z,17.90
2018-09-14T05:28:38.903Z,16.10
2018-09-14T05:31:07.383Z,16.63
2018-09-14T05:33:35.820Z,15.20
2018-09-14T05:36:04.290Z,15.87
2018-09-14T05:38:32.719Z,15.80
2018-09-14T05:41:01.774Z,20.17
2018-09-14T05:43:30.210Z,16.03
2018-09-14T05:45:58.660Z,15.73
2018-09-14T05:48:27.093Z,17.27
2018-09-14T05:50:55.542Z,12.73
2018-09-14T05:53:23.981Z,15.07
2018-09-14T05:55:52.444Z,13.70
2018-09-14T05:58:20.894Z,11.63
2018-09-14T06:00:49.405Z,12.87
2018-09-14T06:03:18.163Z,15.73
2018-09-14T06:05:46.690Z,14.97
2018-09-14T06:08:15.118Z,18.00
2018-09-14T06:10:43.563Z,19.33
2018-09-14T06:13:12.177Z,17.13
2018-09-14T06:15:40.630Z,15.83
2018-09-14T06:18:09.058Z,16.10
2018-09-14T06:20:37.514Z,14.77
2018-09-14T06:23:06.124Z,15.70
2018-09-14T06:25:34.541Z,12.57
2018-09-14T06:28:02.997Z,14.17
2018-09-14T06:30:31.491Z,12.03
2018-09-14T06:32:59.887Z,14.33
2018-09-14T06:35:28.355Z,12.40
2018-09-14T06:37:56.782Z,13.27
2018-09-14T06:40:25.238Z,11.63
2018-09-14T06:42:53.673Z,12.47
2018-09-14T06:45:22.203Z,10.20
2018-09-14T06:47:50.590Z,13.40
2018-09-14T06:50:19.061Z,10.30
2018-09-14T06:52:47.539Z,10.50
2018-09-14T06:55:16.006Z,13.00
2018-09-14T06:57:44.446Z,12.00
2018-09-14T07:00:13.004Z,10.97
2018-09-14T07:02:41.337Z,11.30
2018-09-14T07:05:09.788Z,11.53
2018-09-14T07:07:38.229Z,10.57
2018-09-14T07:10:06.662Z,11.60
2018-09-14T07:12:35.138Z,11.23
2018-09-14T07:15:03.637Z,12.43
2018-09-14T07:17:32.121Z,10.33
2018-09-14T07:20:00.564Z,11.27
2018-09-14T07:22:29.044Z,10.80
2018-09-14T07:24:57.547Z,9.90
2018-09-14T07:27:26.078Z,13.40
2018-09-14T07:29:54.648Z,11.30
2018-09-14T07:32:23.116Z,13.43
2018-09-14T07:34:51.577Z,12.03
2018-09-14T07:37:20.037Z,10.90
2018-09-14T07:39:48.484Z,11.97
2018-09-14T07:42:16.941Z,11.23
2018-09-14T07:44:45.394Z,12.20
2018-09-14T07:47:13.858Z,10.77
2018-09-14T07:49:42.294Z,9.80
2018-09-14T07:52:10.753Z,12.20
2018-09-14T07:54:39.198Z,12.03
2018-09-14T07:57:07.693Z,10.83
2018-09-14T07:59:36.162Z,12.37
2018-09-14T08:02:04.674Z,9.80
2018-09-14T08:04:33.300Z,9.70
2018-09-14T08:07:01.760Z,10.20
2018-09-14T08:09:30.275Z,9.60
2018-09-14T08:11:58.817Z,10.33
2018-09-14T08:14:27.225Z,9.77
2018-09-14T08:16:55.689Z,8.97
2018-09-14T08:19:24.124Z,9.60
2018-09-14T08:21:52.701Z,7.73
2018-09-14T08:24:21.001Z,8.63
2018-09-14T08:26:49.462Z,8.30
2018-09-14T08:29:17.882Z,8.83
2018-09-14T08:31:46.325Z,8.67
2018-09-14T08:34:14.729Z,8.03
2018-09-14T08:36:43.193Z,8.00
2018-09-14T08:39:12.729Z,8.10
2018-09-14T08:41:41.182Z,10.07
2018-09-14T08:44:09.897Z,9.30
2018-09-14T08:46:38.342Z,9.90
2018-09-14T08:49:06.820Z,9.53
2018-09-14T08:51:35.234Z,6.40
2018-09-14T08:54:03.685Z,6.67
2018-09-14T08:56:32.109Z,6.27
2018-09-14T08:59:00.577Z,7.83
2018-09-14T09:01:28.992Z,6.83
2018-09-14T09:03:57.453Z,6.73
2018-09-14T09:06:26.117Z,5.97
2018-09-14T09:08:54.690Z,5.57
2018-09-14T09:11:23.200Z,5.30
2018-09-14T09:13:51.635Z,5.33
2018-09-14T09:16:20.086Z,5.50
2018-09-14T09:18:48.534Z,5.60
2018-09-14T09:21:16.974Z,4.87
2018-09-14T09:23:45.414Z,4.83
2018-09-14T09:26:13.881Z,4.67
2018-09-14T09:28:42.303Z,4.50
2018-09-14T09:31:10.718Z,5.07
2018-09-14T09:33:39.167Z,4.63
2018-09-14T09:36:07.588Z,4.67
2018-09-14T09:38:36.053Z,4.83
2018-09-14T09:41:04.502Z,4.07
2018-09-14T09:43:33.142Z,3.47
2018-09-14T09:46:01.393Z,3.40
2018-09-14T09:48:29.857Z,3.90
2018-09-14T09:50:58.436Z,3.83
2018-09-14T09:53:26.765Z,4.27
2018-09-14T09:55:55.194Z,4.17
2018-09-14T09:58:23.646Z,4.73
2018-09-14T10:00:57.457Z,4.77
2018-09-14T10:03:31.241Z,3.27
2018-09-14T10:06:05.037Z,5.03
2018-09-14T10:08:33.481Z,4.93
2018-09-14T10:11:02.021Z,3.13
2018-09-14T10:13:30.506Z,5.07
2018-09-14T10:15:58.941Z,2.77
2018-09-14T10:18:27.406Z,2.60
2018-09-14T10:20:55.900Z,2.73
2018-09-14T10:23:24.282Z,2.60
2018-09-14T10:25:52.721Z,3.13
2018-09-14T10:28:21.173Z,3.00
2018-09-14T10:30:49.647Z,2.67
2018-09-14T10:33:18.122Z,2.83
2018-09-14T10:35:46.558Z,2.27
2018-09-14T10:38:15.042Z,3.37
2018-09-14T10:40:43.497Z,2.43
2018-09-14T10:43:11.969Z,2.13
2018-09-14T10:45:40.395Z,2.60
2018-09-14T10:48:08.869Z,1.93
2018-09-14T10:50:37.326Z,2.07
2018-09-14T10:53:05.822Z,1.93
2018-09-14T10:55:34.273Z,2.00
2018-09-14T10:58:02.762Z,2.20
2018-09-14T11:00:31.334Z,1.90
2018-09-14T11:02:59.821Z,2.30
2018-09-14T11:05:28.243Z,2.07
2018-09-14T11:07:56.727Z,2.00
2018-09-14T11:10:25.354Z,3.00
2018-09-14T11:12:53.859Z,2.33
2018-09-14T11:15:22.333Z,2.23
2018-09-14T11:17:50.766Z,2.20
2018-09-14T11:20:19.232Z,2.53
2018-09-14T11:22:47.746Z,3.03
2018-09-14T11:25:16.359Z,1.87
2018-09-14T11:27:44.830Z,1.53
2018-09-14T11:30:13.282Z,1.73
2018-09-14T11:32:41.709Z,2.90
2018-09-14T11:35:10.185Z,2.00
2018-09-14T11:37:38.661Z,1.97
2018-09-14T11:40:07.113Z,2.03
2018-09-14T11:42:35.554Z,2.17
2018-09-14T11:45:04.111Z,1.53
2018-09-14T11:47:32.553Z,1.70
2018-09-14T11:50:01.013Z,1.40
2018-09-14T11:52:29.459Z,1.40
2018-09-14T11:54:57.954Z,2.23
2018-09-14T11:57:26.398Z,1.10
2018-09-14T11:59:54.842Z,1.40
2018-09-14T12:02:24.622Z,1.73
2018-09-14T12:04:54.352Z,3.73
2018-09-14T12:07:22.861Z,2.03
2018-09-14T12:09:51.419Z,2.30
2018-09-14T12:12:19.897Z,2.37
2018-09-14T12:14:48.357Z,2.17
2018-09-14T12:17:16.802Z,1.80
2018-09-14T12:19:45.246Z,2.00
2018-09-14T12:22:13.714Z,1.50
2018-09-14T12:24:42.134Z,1.40
2018-09-14T12:27:10.553Z,2.00
2018-09-14T12:29:38.998Z,1.33
2018-09-14T12:32:07.426Z,1.57
2018-09-14T12:34:35.880Z,1.97
2018-09-14T12:37:04.321Z,3.23
2018-09-14T12:39:32.766Z,1.70
2018-09-14T12:42:01.193Z,2.00
2018-09-14T12:44:29.645Z,2.07
2018-09-14T12:46:58.074Z,1.20
2018-09-14T12:49:26.531Z,1.47
2018-09-14T12:51:54.965Z,1.60
2018-09-14T12:54:23.395Z,1.00
2018-09-14T12:56:51.863Z,1.97
2018-09-14T12:59:20.323Z,1.33
2018-09-14T13:01:48.809Z,1.83
2018-09-14T13:04:17.297Z,1.87
2018-09-14T13:06:52.786Z,1.27
2018-09-14T13:09:21.227Z,1.10
2018-09-14T13:11:49.740Z,1.33
2018-09-14T13:14:21.768Z,1.67
2018-09-14T13:16:50.731Z,1.80
2018-09-14T13:19:19.506Z,1.40
2018-09-14T13:21:47.961Z,1.27
2018-09-14T13:24:16.413Z,3.93
2018-09-14T13:26:44.861Z,1.90
2018-09-14T13:29:13.310Z,1.30
2018-09-14T13:31:41.761Z,1.33
2018-09-14T13:34:10.220Z,1.30
2018-09-14T13:36:38.706Z,1.30
2018-09-14T13:39:08.161Z,3.30
2018-09-14T13:41:36.605Z,1.57
2018-09-14T13:44:05.049Z,1.43
2018-09-14T13:46:33.806Z,2.63
2018-09-14T13:49:02.257Z,1.53
2018-09-14T13:51:30.745Z,1.60
2018-09-14T13:53:59.187Z,1.63
2018-09-14T13:56:27.700Z,1.67
2018-09-14T13:58:56.541Z,1.80
2018-09-14T14:01:25.085Z,2.17
2018-09-14T14:03:57.149Z,2.13
2018-09-14T14:06:25.638Z,2.33
2018-09-14T14:08:54.058Z,1.50
2018-09-14T14:11:22.846Z,1.37
2018-09-14T14:13:51.282Z,1.53
2018-09-14T14:16:19.769Z,1.63
2018-09-14T14:18:48.210Z,1.77
2018-09-14T14:21:16.689Z,1.70
2018-09-14T14:23:45.133Z,1.50
2018-09-14T14:26:13.602Z,1.90
2018-09-14T14:28:42.054Z,1.87
2018-09-14T14:31:10.526Z,1.50
2018-09-14T14:33:38.980Z,3.53
2018-09-14T14:36:07.433Z,1.40
2018-09-14T14:38:35.866Z,2.23
2018-09-14T14:41:04.337Z,2.60
2018-09-14T14:43:32.802Z,1.60
2018-09-14T14:46:01.262Z,1.97
2018-09-14T14:48:29.705Z,1.63
2018-09-14T14:50:58.167Z,2.13
2018-09-14T14:53:26.614Z,1.70
2018-09-14T14:55:55.094Z,2.17
2018-09-14T14:58:23.521Z,1.83
2018-09-14T15:00:51.977Z,1.73
2018-09-14T15:03:20.413Z,2.30
2018-09-14T15:05:48.863Z,2.93
2018-09-14T15:08:17.294Z,2.13
2018-09-14T15:10:47.568Z,2.80
2018-09-14T15:13:16.002Z,2.00
2018-09-14T15:15:48.469Z,2.17
2018-09-14T15:18:16.930Z,2.27
2018-09-14T15:20:45.374Z,2.57
2018-09-14T15:23:13.830Z,2.13
2018-09-14T15:25:42.789Z,2.83
2018-09-14T15:28:11.232Z,2.30
2018-09-14T15:30:39.676Z,2.43
2018-09-14T15:33:08.127Z,2.30
2018-09-14T15:35:36.605Z,3.67
2018-09-14T15:38:05.130Z,2.30
2018-09-14T15:40:33.595Z,2.37
2018-09-14T15:43:02.051Z,2.70
2018-09-14T15:45:30.510Z,3.20
2018-09-14T15:47:58.994Z,2.27
2018-09-14T15:50:27.425Z,2.20
2018-09-14T15:52:55.878Z,2.30
2018-09-14T15:55:24.334Z,2.00
2018-09-14T15:57:52.902Z,2.37
2018-09-14T16:00:22.006Z,2.63
2018-09-14T16:02:52.046Z,3.17
2018-09-14T16:05:20.504Z,3.10
2018-09-14T16:07:49.318Z,2.53
2018-09-14T16:10:17.769Z,2.20
2018-09-14T16:12:46.266Z,2.43
2018-09-14T16:15:14.708Z,2.90
2018-09-14T16:17:43.285Z,2.70
2018-09-14T16:20:11.726Z,2.27
2018-09-14T16:22:40.190Z,2.47
2018-09-14T16:25:08.633Z,3.40
2018-09-14T16:27:37.082Z,2.83
2018-09-14T16:30:06.106Z,3.00
2018-09-14T16:32:34.568Z,3.87
2018-09-14T16:35:02.997Z,3.40
2018-09-14T16:37:31.454Z,3.97
2018-09-14T16:39:59.878Z,4.27
2018-09-14T16:42:28.403Z,3.43
2018-09-14T16:44:56.854Z,3.77
2018-09-14T16:47:25.330Z,3.10
2018-09-14T16:49:53.805Z,4.27
2018-09-14T16:52:22.290Z,4.10
2018-09-14T16:54:50.753Z,3.20
2018-09-14T16:57:19.236Z,3.53
2018-09-14T16:59:47.700Z,3.23
2018-09-14T17:02:16.186Z,2.97
2018-09-14T17:04:44.631Z,3.17
2018-09-14T17:07:13.135Z,3.40
2018-09-14T17:09:41.610Z,4.07
2018-09-14T17:12:10.107Z,3.10
2018-09-14T17:14:38.594Z,3.53
2018-09-14T17:17:07.106Z,3.00
2018-09-14T17:19:35.558Z,2.97
2018-09-14T17:22:04.021Z,3.77
2018-09-14T17:24:32.472Z,4.77
2018-09-14T17:27:00.932Z,3.47
2018-09-14T17:29:29.400Z,2.90
2018-09-14T17:31:57.874Z,3.37
2018-09-14T17:34:26.371Z,3.30
2018-09-14T17:36:54.834Z,3.67
2018-09-14T17:39:23.299Z,3.20
2018-09-14T17:41:51.734Z,3.63
2018-09-14T17:44:20.221Z,5.50
2018-09-14T17:46:48.671Z,4.00
2018-09-14T17:49:17.674Z,2.97
2018-09-14T17:51:46.170Z,4.53
2018-09-14T17:54:14.643Z,3.37
2018-09-14T17:56:43.142Z,4.03
2018-09-14T17:59:11.634Z,4.13
2018-09-14T18:01:40.109Z,4.23
2018-09-14T18:04:08.603Z,3.90
2018-09-14T18:06:37.064Z,3.87
2018-09-14T18:09:08.761Z,4.77
2018-09-14T18:11:37.610Z,4.50
2018-09-14T18:14:06.110Z,6.13
2018-09-14T18:16:34.588Z,4.20
2018-09-14T18:19:03.118Z,3.67
2018-09-14T18:21:31.590Z,4.10
2018-09-14T18:24:00.069Z,3.93
2018-09-14T18:26:28.531Z,4.47
2018-09-14T18:28:57.010Z,4.53
2018-09-14T18:31:25.447Z,3.67
2018-09-14T18:33:53.937Z,4.17
2018-09-14T18:36:22.475Z,3.87
2018-09-14T18:38:50.963Z,3.53
2018-09-14T18:41:19.426Z,4.47
2018-09-14T18:43:48.290Z,4.00
2018-09-14T18:46:16.774Z,5.97
2018-09-14T18:48:45.339Z,4.03
2018-09-14T18:51:13.881Z,3.57
2018-09-14T18:53:42.336Z,4.00
2018-09-14T18:56:10.771Z,3.73
2018-09-14T18:58:39.306Z,4.33
2018-09-14T19:01:07.759Z,4.80
2018-09-14T19:03:36.212Z,4.57
2018-09-14T19:06:04.684Z,4.30
2018-09-14T19:08:33.129Z,3.97
2018-09-14T19:11:01.621Z,3.77
2018-09-14T19:13:30.142Z,4.77
2018-09-14T19:15:58.633Z,3.90
2018-09-14T19:18:27.090Z,4.30
2018-09-14T19:20:55.595Z,5.13
2018-09-14T19:23:24.072Z,4.60
2018-09-14T19:25:52.556Z,4.63
2018-09-14T19:28:21.009Z,5.77
2018-09-14T19:30:49.513Z,5.00
2018-09-14T19:33:17.963Z,5.07
2018-09-14T19:35:46.431Z,5.40
2018-09-14T19:38:14.922Z,4.90
2018-09-14T19:40:43.419Z,5.10
2018-09-14T19:43:11.871Z,4.67
2018-09-14T19:45:40.351Z,5.23
2018-09-14T19:48:08.877Z,6.30
2018-09-14T19:50:37.423Z,5.50
2018-09-14T19:53:05.904Z,5.03
2018-09-14T19:55:34.384Z,5.17
2018-09-14T19:58:02.850Z,6.13
2018-09-14T20:00:31.336Z,6.27
2018-09-14T20:02:59.795Z,8.60
2018-09-14T20:05:28.287Z,5.33
2018-09-14T20:07:56.754Z,5.67
2018-09-14T20:10:25.245Z,5.80
2018-09-14T20:12:53.710Z,5.37
2018-09-14T20:15:22.186Z,6.00
2018-09-14T20:17:50.653Z,6.00
2018-09-14T20:20:19.178Z,6.10
2018-09-14T20:22:47.609Z,5.43
2018-09-14T20:25:16.321Z,6.50
2018-09-14T20:27:44.778Z,5.73
2018-09-14T20:30:13.258Z,6.53
2018-09-14T20:32:41.727Z,5.80
2018-09-14T20:35:10.209Z,5.77
2018-09-14T20:37:38.662Z,6.73
2018-09-14T20:40:07.131Z,6.27
2018-09-14T20:42:35.619Z,11.53
2018-09-14T20:45:04.114Z,7.00
2018-09-14T20:47:32.862Z,7.00
2018-09-14T20:50:01.327Z,6.17
2018-09-14T20:52:29.802Z,6.90
2018-09-14T20:54:58.504Z,9.37
2018-09-14T20:57:27.070Z,7.13
2018-09-14T20:59:55.514Z,7.00
2018-09-14T21:02:23.990Z,8.13
2018-09-14T21:04:52.466Z,6.53
2018-09-14T21:07:20.946Z,6.70
2018-09-14T21:09:49.384Z,7.27
2018-09-14T21:12:17.878Z,7.70
2018-09-14T21:14:46.315Z,7.17
2018-09-14T21:17:14.800Z,6.60
2018-09-14T21:19:43.264Z,6.80
2018-09-14T21:22:11.790Z,10.97
2018-09-14T21:24:40.250Z,7.93
2018-09-14T21:27:08.763Z,7.60
2018-09-14T21:29:37.213Z,11.53
2018-09-14T21:32:05.812Z,7.47
2018-09-14T21:34:34.275Z,8.40
2018-09-14T21:37:02.775Z,9.63
2018-09-14T21:39:31.226Z,8.10
2018-09-14T21:41:59.701Z,7.27
2018-09-14T21:44:28.135Z,6.53
2018-09-14T21:46:56.605Z,6.90
2018-09-14T21:49:25.098Z,7.40
2018-09-14T21:51:53.530Z,6.97
2018-09-14T21:54:21.978Z,7.73
2018-09-14T21:56:50.450Z,7.70
2018-09-14T21:59:18.921Z,8.07
2018-09-14T22:01:47.421Z,7.97
2018-09-14T22:04:15.885Z,9.07
2018-09-14T22:06:44.377Z,7.73
2018-09-14T22:09:12.855Z,8.10
2018-09-14T22:11:41.387Z,7.93
2018-09-14T22:14:09.839Z,7.93
2018-09-14T22:16:38.319Z,7.43
2018-09-14T22:19:06.795Z,7.53
2018-09-14T22:21:35.302Z,7.63
2018-09-14T22:24:03.761Z,8.23
2018-09-14T22:26:32.221Z,8.60
2018-09-14T22:29:00.694Z,9.13
2018-09-14T22:31:29.157Z,8.17
2018-09-14T22:33:57.638Z,8.70
2018-09-14T22:36:26.094Z,9.10
2018-09-14T22:38:54.590Z,8.53
2018-09-14T22:41:23.146Z,8.53
2018-09-14T22:43:51.638Z,9.53
2018-09-14T22:46:20.089Z,9.27
2018-09-14T22:48:48.574Z,9.20
2018-09-14T22:51:17.172Z,9.73
2018-09-14T22:53:45.676Z,8.33
2018-09-14T22:56:14.137Z,9.33
2018-09-14T22:58:42.618Z,8.93
2018-09-14T23:01:16.362Z,9.13
2018-09-14T23:03:45.346Z,8.20
2018-09-14T23:06:13.804Z,7.53
2018-09-14T23:08:42.280Z,7.87
2018-09-14T23:11:11.078Z,8.77
2018-09-14T23:13:39.890Z,9.33
2018-09-14T23:16:08.371Z,9.73
2018-09-14T23:18:36.863Z,9.87
2018-09-14T23:21:05.388Z,8.03
2018-09-14T23:23:34.173Z,8.43
2018-09-14T23:26:08.169Z,8.30
2018-09-14T23:28:36.672Z,8.60
2018-09-14T23:31:05.142Z,8.20
2018-09-14T23:33:33.621Z,8.60
2018-09-14T23:36:02.099Z,8.83
2018-09-14T23:38:30.562Z,8.43
2018-09-14T23:40:58.997Z,8.20
2018-09-14T23:43:27.469Z,8.47
2018-09-14T23:45:55.922Z,7.97
2018-09-14T23:48:24.405Z,8.43
2018-09-14T23:50:52.871Z,8.53
2018-09-14T23:53:21.347Z,8.20
2018-09-14T23:55:49.805Z,9.10
2018-09-14T23:58:18.314Z,10.67
